sensor_id;sensor_type;location;lat;lon;timestamp;pressure;altitude;pressure_sealevel;temperature;humidity
50292;BME280;36190;54.980;73.388;2023-03-15T00:00:34;99869.47;;;-2.77;74.38
50292;BME280;36190;54.980;73.388;2023-03-15T00:03:01;99864.81;;;-2.71;74.27
50292;BME280;36190;54.980;73.388;2023-03-15T00:05:30;99848.94;;;-2.68;74.28
50292;BME280;36190;54.980;73.388;2023-03-15T00:07:58;99845.03;;;-2.61;74.19
50292;BME280;36190;54.980;73.388;2023-03-15T00:10:26;99825.06;;;-2.62;74.13
50292;BME280;36190;54.980;73.388;2023-03-15T00:12:54;99825.06;;;-2.62;74.14
50292;BME280;36190;54.980;73.388;2023-03-15T00:15:23;99831.22;;;-2.63;74.14
50292;BME280;36190;54.980;73.388;2023-03-15T00:17:50;99840.81;;;-2.64;74.13
50292;BME280;36190;54.980;73.388;2023-03-15T00:20:18;99853.59;;;-2.59;74.25
50292;BME280;36190;54.980;73.388;2023-03-15T00:22:45;99847.97;;;-2.53;74.11
50292;BME280;36190;54.980;73.388;2023-03-15T00:25:13;99858.06;;;-2.46;73.94
50292;BME280;36190;54.980;73.388;2023-03-15T00:27:40;99856.09;;;-2.43;73.85
50292;BME280;36190;54.980;73.388;2023-03-15T00:30:10;99854.13;;;-2.39;73.87
50292;BME280;36190;54.980;73.388;2023-03-15T00:32:39;99847.94;;;-2.38;73.58
50292;BME280;36190;54.980;73.388;2023-03-15T00:35:08;99840.13;;;-2.38;73.62
50292;BME280;36190;54.980;73.388;2023-03-15T00:37:37;99834.88;;;-2.38;73.55
50292;BME280;36190;54.980;73.388;2023-03-15T00:40:06;99824.44;;;-2.38;73.33
50292;BME280;36190;54.980;73.388;2023-03-15T00:42:34;99807.19;;;-2.41;73.32
50292;BME280;36190;54.980;73.388;2023-03-15T00:45:01;99810.94;;;-2.45;73.51
50292;BME280;36190;54.980;73.388;2023-03-15T00:47:30;99806.53;;;-2.44;73.31
50292;BME280;36190;54.980;73.388;2023-03-15T00:49:59;99799.34;;;-2.41;73.47
50292;BME280;36190;54.980;73.388;2023-03-15T00:52:26;99795.13;;;-2.43;73.34
50292;BME280;36190;54.980;73.388;2023-03-15T00:54:54;99772.34;;;-2.41;73.35
50292;BME280;36190;54.980;73.388;2023-03-15T00:57:22;99774.06;;;-2.40;73.24
50292;BME280;36190;54.980;73.388;2023-03-15T00:59:49;99767.97;;;-2.41;73.36
50292;BME280;36190;54.980;73.388;2023-03-15T01:02:18;99761.91;;;-2.41;73.41
50292;BME280;36190;54.980;73.388;2023-03-15T01:04:47;99756.81;;;-2.43;73.37
50292;BME280;36190;54.980;73.388;2023-03-15T01:07:16;99759.50;;;-2.44;73.51
50292;BME280;36190;54.980;73.388;2023-03-15T01:09:44;99752.06;;;-2.51;73.64
50292;BME280;36190;54.980;73.388;2023-03-15T01:12:11;99753.94;;;-2.53;73.42
50292;BME280;36190;54.980;73.388;2023-03-15T01:14:39;99745.38;;;-2.55;73.44
50292;BME280;36190;54.980;73.388;2023-03-15T01:17:06;99736.16;;;-2.60;73.46
50292;BME280;36190;54.980;73.388;2023-03-15T01:19:34;99734.03;;;-2.68;73.54
50292;BME280;36190;54.980;73.388;2023-03-15T01:22:01;99727.53;;;-2.76;73.70
50292;BME280;36190;54.980;73.388;2023-03-15T01:24:30;99718.09;;;-2.78;73.64
50292;BME280;36190;54.980;73.388;2023-03-15T01:26:58;99714.13;;;-2.84;73.62
50292;BME280;36190;54.980;73.388;2023-03-15T01:29:25;99714.72;;;-2.93;73.92
50292;BME280;36190;54.980;73.388;2023-03-15T01:31:53;99733.94;;;-2.94;73.87
50292;BME280;36190;54.980;73.388;2023-03-15T01:34:21;99726.31;;;-2.97;73.87
50292;BME280;36190;54.980;73.388;2023-03-15T01:36:49;99728.34;;;-3.02;73.92
50292;BME280;36190;54.980;73.388;2023-03-15T01:39:18;99729.94;;;-3.00;73.88
50292;BME280;36190;54.980;73.388;2023-03-15T01:41:47;99727.13;;;-2.97;73.90
50292;BME280;36190;54.980;73.388;2023-03-15T01:44:17;99730.38;;;-2.93;73.85
50292;BME280;36190;54.980;73.388;2023-03-15T01:46:45;99717.41;;;-2.95;73.68
50292;BME280;36190;54.980;73.388;2023-03-15T01:49:16;99695.34;;;-2.89;73.52
50292;BME280;36190;54.980;73.388;2023-03-15T01:51:50;99686.56;;;-2.88;73.53
50292;BME280;36190;54.980;73.388;2023-03-15T01:54:22;99693.25;;;-2.84;73.50
50292;BME280;36190;54.980;73.388;2023-03-15T01:56:56;99692.94;;;-2.79;73.23
50292;BME280;36190;54.980;73.388;2023-03-15T01:59:26;99695.06;;;-2.71;73.53
50292;BME280;36190;54.980;73.388;2023-03-15T02:01:56;99705.41;;;-2.70;73.19
50292;BME280;36190;54.980;73.388;2023-03-15T02:04:28;99694.94;;;-2.70;72.97
50292;BME280;36190;54.980;73.388;2023-03-15T02:06:58;99711.06;;;-2.63;72.87
50292;BME280;36190;54.980;73.388;2023-03-15T02:09:33;99700.31;;;-2.58;72.66
50292;BME280;36190;54.980;73.388;2023-03-15T02:12:04;99704.69;;;-2.59;72.72
50292;BME280;36190;54.980;73.388;2023-03-15T02:14:32;99697.06;;;-2.62;72.44
50292;BME280;36190;54.980;73.388;2023-03-15T02:17:00;99704.19;;;-2.64;72.64
50292;BME280;36190;54.980;73.388;2023-03-15T02:19:37;99697.47;;;-2.68;72.45
50292;BME280;36190;54.980;73.388;2023-03-15T02:22:19;99691.94;;;-2.64;72.34
50292;BME280;36190;54.980;73.388;2023-03-15T02:24:54;99680.03;;;-2.68;72.38
50292;BME280;36190;54.980;73.388;2023-03-15T02:27:29;99676.06;;;-2.73;72.32
50292;BME280;36190;54.980;73.388;2023-03-15T02:30:00;99679.59;;;-2.74;72.50
50292;BME280;36190;54.980;73.388;2023-03-15T02:32:29;99670.00;;;-2.74;72.36
50292;BME280;36190;54.980;73.388;2023-03-15T02:34:57;99669.03;;;-2.73;72.10
50292;BME280;36190;54.980;73.388;2023-03-15T02:37:24;99677.81;;;-2.74;72.21
50292;BME280;36190;54.980;73.388;2023-03-15T02:39:52;99672.38;;;-2.71;72.23
50292;BME280;36190;54.980;73.388;2023-03-15T02:42:19;99676.06;;;-2.73;72.16
50292;BME280;36190;54.980;73.388;2023-03-15T02:44:50;99678.75;;;-2.75;72.19
50292;BME280;36190;54.980;73.388;2023-03-15T02:47:23;99677.19;;;-2.78;72.04
50292;BME280;36190;54.980;73.388;2023-03-15T02:49:53;99685.75;;;-2.76;72.07
50292;BME280;36190;54.980;73.388;2023-03-15T02:52:21;99676.16;;;-2.75;72.04
50292;BME280;36190;54.980;73.388;2023-03-15T02:54:49;99683.25;;;-2.77;71.96
50292;BME280;36190;54.980;73.388;2023-03-15T02:57:17;99680.34;;;-2.72;71.99
50292;BME280;36190;54.980;73.388;2023-03-15T02:59:45;99673.88;;;-2.67;71.96
50292;BME280;36190;54.980;73.388;2023-03-15T03:02:17;99686.00;;;-2.66;72.10
50292;BME280;36190;54.980;73.388;2023-03-15T03:04:44;99688.31;;;-2.61;71.97
50292;BME280;36190;54.980;73.388;2023-03-15T03:07:12;99690.19;;;-2.63;72.16
50292;BME280;36190;54.980;73.388;2023-03-15T03:09:39;99692.25;;;-2.68;72.40
50292;BME280;36190;54.980;73.388;2023-03-15T03:12:07;99689.84;;;-2.71;72.48
50292;BME280;36190;54.980;73.388;2023-03-15T03:14:34;99698.19;;;-2.66;72.75
50292;BME280;36190;54.980;73.388;2023-03-15T03:17:02;99683.94;;;-2.60;72.88
50292;BME280;36190;54.980;73.388;2023-03-15T03:19:31;99686.22;;;-2.56;72.81
50292;BME280;36190;54.980;73.388;2023-03-15T03:21:59;99682.69;;;-2.55;72.85
50292;BME280;36190;54.980;73.388;2023-03-15T03:24:26;99676.81;;;-2.58;72.67
50292;BME280;36190;54.980;73.388;2023-03-15T03:26:54;99672.41;;;-2.58;73.05
50292;BME280;36190;54.980;73.388;2023-03-15T03:29:22;99673.91;;;-2.54;73.32
50292;BME280;36190;54.980;73.388;2023-03-15T03:31:50;99668.06;;;-2.44;73.33
50292;BME280;36190;54.980;73.388;2023-03-15T03:34:17;99661.19;;;-2.32;73.18
50292;BME280;36190;54.980;73.388;2023-03-15T03:36:47;99671.00;;;-2.23;73.04
50292;BME280;36190;54.980;73.388;2023-03-15T03:39:14;99669.44;;;-2.13;73.02
50292;BME280;36190;54.980;73.388;2023-03-15T03:41:42;99677.31;;;-2.00;73.19
50292;BME280;36190;54.980;73.388;2023-03-15T03:44:09;99675.91;;;-1.92;72.98
50292;BME280;36190;54.980;73.388;2023-03-15T03:46:37;99685.53;;;-1.80;72.87
50292;BME280;36190;54.980;73.388;2023-03-15T03:49:05;99678.31;;;-1.63;72.85
50292;BME280;36190;54.980;73.388;2023-03-15T03:51:32;99665.28;;;-1.52;72.77
50292;BME280;36190;54.980;73.388;2023-03-15T03:54:03;99680.16;;;-1.40;72.62
50292;BME280;36190;54.980;73.388;2023-03-15T03:56:30;99681.38;;;-1.32;72.59
50292;BME280;36190;54.980;73.388;2023-03-15T03:58:58;99684.50;;;-1.27;72.54
50292;BME280;36190;54.980;73.388;2023-03-15T04:01:25;99685.00;;;-1.22;72.45
50292;BME280;36190;54.980;73.388;2023-03-15T04:03:53;99685.06;;;-1.11;72.46
50292;BME280;36190;54.980;73.388;2023-03-15T04:06:20;99671.22;;;-1.00;72.24
50292;BME280;36190;54.980;73.388;2023-03-15T04:08:48;99668.03;;;-0.92;72.15
50292;BME280;36190;54.980;73.388;2023-03-15T04:11:17;99652.09;;;-0.89;71.95
50292;BME280;36190;54.980;73.388;2023-03-15T04:13:45;99661.28;;;-0.83;72.00
50292;BME280;36190;54.980;73.388;2023-03-15T04:16:12;99670.97;;;-0.72;72.03
50292;BME280;36190;54.980;73.388;2023-03-15T04:18:40;99660.03;;;-0.66;72.00
50292;BME280;36190;54.980;73.388;2023-03-15T04:21:07;99638.50;;;-0.58;71.64
50292;BME280;36190;54.980;73.388;2023-03-15T04:23:38;99651.25;;;-0.53;71.59
50292;BME280;36190;54.980;73.388;2023-03-15T04:26:05;99648.44;;;-0.50;71.64
50292;BME280;36190;54.980;73.388;2023-03-15T04:28:34;99647.22;;;-0.46;71.44
50292;BME280;36190;54.980;73.388;2023-03-15T04:31:02;99656.03;;;-0.47;71.38
50292;BME280;36190;54.980;73.388;2023-03-15T04:33:35;99661.16;;;-0.57;71.11
50292;BME280;36190;54.980;73.388;2023-03-15T04:36:02;99646.72;;;-0.63;71.14
50292;BME280;36190;54.980;73.388;2023-03-15T04:38:30;99619.34;;;-0.59;71.15
50292;BME280;36190;54.980;73.388;2023-03-15T04:41:00;99643.19;;;-0.50;71.00
50292;BME280;36190;54.980;73.388;2023-03-15T04:43:36;99657.38;;;-0.42;70.64
50292;BME280;36190;54.980;73.388;2023-03-15T04:46:04;99637.97;;;-0.39;70.57
50292;BME280;36190;54.980;73.388;2023-03-15T04:48:32;99651.56;;;-0.34;70.56
50292;BME280;36190;54.980;73.388;2023-03-15T04:50:59;99637.84;;;-0.26;70.47
50292;BME280;36190;54.980;73.388;2023-03-15T04:53:27;99649.19;;;-0.14;70.17
50292;BME280;36190;54.980;73.388;2023-03-15T04:55:55;99651.00;;;-0.03;69.76
50292;BME280;36190;54.980;73.388;2023-03-15T04:58:22;99645.19;;;0.05;69.62
50292;BME280;36190;54.980;73.388;2023-03-15T05:00:51;99646.84;;;0.06;69.29
50292;BME280;36190;54.980;73.388;2023-03-15T05:03:19;99633.25;;;0.01;69.20
50292;BME280;36190;54.980;73.388;2023-03-15T05:06:05;99630.03;;;0.08;69.04
50292;BME280;36190;54.980;73.388;2023-03-15T05:08:34;99633.72;;;0.17;69.22
50292;BME280;36190;54.980;73.388;2023-03-15T05:11:02;99644.34;;;0.27;69.19
50292;BME280;36190;54.980;73.388;2023-03-15T05:13:30;99644.19;;;0.29;68.76
50292;BME280;36190;54.980;73.388;2023-03-15T05:15:59;99627.03;;;0.24;68.84
50292;BME280;36190;54.980;73.388;2023-03-15T05:18:27;99623.47;;;0.14;68.73
50292;BME280;36190;54.980;73.388;2023-03-15T05:20:54;99637.78;;;0.10;68.98
50292;BME280;36190;54.980;73.388;2023-03-15T05:23:22;99635.03;;;0.11;69.04
50292;BME280;36190;54.980;73.388;2023-03-15T05:25:50;99635.63;;;0.15;68.98
50292;BME280;36190;54.980;73.388;2023-03-15T05:28:20;99652.09;;;0.17;68.95
50292;BME280;36190;54.980;73.388;2023-03-15T05:30:47;99657.44;;;0.16;69.04
50292;BME280;36190;54.980;73.388;2023-03-15T05:33:19;99648.03;;;0.13;68.58
50292;BME280;36190;54.980;73.388;2023-03-15T05:35:47;99639.44;;;0.11;68.45
50292;BME280;36190;54.980;73.388;2023-03-15T05:38:15;99637.78;;;0.10;68.44
50292;BME280;36190;54.980;73.388;2023-03-15T05:40:43;99643.72;;;0.01;68.48
50292;BME280;36190;54.980;73.388;2023-03-15T05:43:12;99643.00;;;0.10;68.41
50292;BME280;36190;54.980;73.388;2023-03-15T05:45:39;99648.25;;;0.10;68.32
50292;BME280;36190;54.980;73.388;2023-03-15T05:48:09;99645.41;;;0.02;68.23
50292;BME280;36190;54.980;73.388;2023-03-15T05:50:38;99640.88;;;-0.08;68.15
50292;BME280;36190;54.980;73.388;2023-03-15T05:53:05;99635.63;;;-0.08;68.04
50292;BME280;36190;54.980;73.388;2023-03-15T05:55:33;99636.81;;;-0.01;68.08
50292;BME280;36190;54.980;73.388;2023-03-15T05:58:01;99639.19;;;0.03;67.97
50292;BME280;36190;54.980;73.388;2023-03-15T06:00:29;99642.06;;;-0.01;67.81
50292;BME280;36190;54.980;73.388;2023-03-15T06:02:57;99645.41;;;0.02;67.88
50292;BME280;36190;54.980;73.388;2023-03-15T06:05:25;99644.69;;;0.11;67.84
50292;BME280;36190;54.980;73.388;2023-03-15T06:07:54;99647.78;;;0.16;67.54
50292;BME280;36190;54.980;73.388;2023-03-15T06:10:21;99646.13;;;0.15;67.28
50292;BME280;36190;54.980;73.388;2023-03-15T06:12:49;99647.19;;;0.12;67.31
50292;BME280;36190;54.980;73.388;2023-03-15T06:15:17;99650.53;;;0.26;67.22
50292;BME280;36190;54.980;73.388;2023-03-15T06:17:45;99650.75;;;0.46;66.91
50292;BME280;36190;54.980;73.388;2023-03-15T06:20:12;99653.25;;;0.59;66.50
50292;BME280;36190;54.980;73.388;2023-03-15T06:22:40;99644.66;;;0.57;66.10
50292;BME280;36190;54.980;73.388;2023-03-15T06:25:09;99647.31;;;0.45;66.03
50292;BME280;36190;54.980;73.388;2023-03-15T06:27:37;99638.38;;;0.25;66.30
50292;BME280;36190;54.980;73.388;2023-03-15T06:30:06;99648.03;;;0.24;66.52
50292;BME280;36190;54.980;73.388;2023-03-15T06:32:33;99648.75;;;0.26;66.46
50292;BME280;36190;54.980;73.388;2023-03-15T06:35:02;99643.28;;;0.30;66.39
50292;BME280;36190;54.980;73.388;2023-03-15T06:37:30;99647.91;;;0.37;66.36
50292;BME280;36190;54.980;73.388;2023-03-15T06:39:57;99653.41;;;0.34;66.01
50292;BME280;36190;54.980;73.388;2023-03-15T06:42:26;99661.84;;;0.26;66.12
50292;BME280;36190;54.980;73.388;2023-03-15T06:44:54;99657.56;;;0.25;66.26
50292;BME280;36190;54.980;73.388;2023-03-15T06:47:21;99657.56;;;0.25;66.10
50292;BME280;36190;54.980;73.388;2023-03-15T06:49:49;99663.41;;;0.29;66.14
50292;BME280;36190;54.980;73.388;2023-03-15T06:52:17;99658.50;;;0.36;66.10
50292;BME280;36190;54.980;73.388;2023-03-15T06:54:45;99664.72;;;0.46;65.89
50292;BME280;36190;54.980;73.388;2023-03-15T06:57:12;99664.72;;;0.58;65.75
50292;BME280;36190;54.980;73.388;2023-03-15T06:59:41;99665.88;;;0.65;65.62
50292;BME280;36190;54.980;73.388;2023-03-15T07:02:12;99657.75;;;0.79;65.31
50292;BME280;36190;54.980;73.388;2023-03-15T07:04:40;99652.94;;;0.85;65.34
50292;BME280;36190;54.980;73.388;2023-03-15T07:07:09;99658.19;;;0.85;65.12
50292;BME280;36190;54.980;73.388;2023-03-15T07:09:37;99668.47;;;0.76;65.09
50292;BME280;36190;54.980;73.388;2023-03-15T07:12:05;99666.47;;;0.57;65.16
50292;BME280;36190;54.980;73.388;2023-03-15T07:14:33;99657.06;;;0.43;65.53
50292;BME280;36190;54.980;73.388;2023-03-15T07:17:02;99658.03;;;0.42;65.73
50292;BME280;36190;54.980;73.388;2023-03-15T07:19:29;99668.78;;;0.39;65.69
50292;BME280;36190;54.980;73.388;2023-03-15T07:21:57;99670.94;;;0.34;65.70
50292;BME280;36190;54.980;73.388;2023-03-15T07:24:24;99670.44;;;0.29;65.75
50292;BME280;36190;54.980;73.388;2023-03-15T07:26:53;99661.41;;;0.21;65.80
50292;BME280;36190;54.980;73.388;2023-03-15T07:29:21;99672.84;;;0.09;66.02
50292;BME280;36190;54.980;73.388;2023-03-15T07:31:49;99668.28;;;-0.01;65.95
50292;BME280;36190;54.980;73.388;2023-03-15T07:34:18;99665.88;;;-0.15;66.14
50292;BME280;36190;54.980;73.388;2023-03-15T07:36:46;99657.56;;;-0.20;66.32
50292;BME280;36190;54.980;73.388;2023-03-15T07:39:14;99661.09;;;-0.21;66.59
50292;BME280;36190;54.980;73.388;2023-03-15T07:41:42;99659.19;;;-0.31;66.53
50292;BME280;36190;54.980;73.388;2023-03-15T07:44:10;99660.38;;;-0.35;66.65
50292;BME280;36190;54.980;73.388;2023-03-15T07:46:37;99662.88;;;-0.33;66.71
50292;BME280;36190;54.980;73.388;2023-03-15T07:49:05;99666.84;;;-0.28;66.86
50292;BME280;36190;54.980;73.388;2023-03-15T07:51:34;99663.34;;;-0.39;66.56
50292;BME280;36190;54.980;73.388;2023-03-15T07:54:01;99650.88;;;-0.60;66.87
50292;BME280;36190;54.980;73.388;2023-03-15T07:56:30;99648.69;;;-0.78;67.25
50292;BME280;36190;54.980;73.388;2023-03-15T07:58:57;99667.81;;;-0.89;67.57
50292;BME280;36190;54.980;73.388;2023-03-15T08:01:25;99661.97;;;-0.92;67.64
50292;BME280;36190;54.980;73.388;2023-03-15T08:03:52;99652.78;;;-0.98;67.79
50292;BME280;36190;54.980;73.388;2023-03-15T08:06:19;99649.63;;;-1.03;68.13
50292;BME280;36190;54.980;73.388;2023-03-15T08:08:48;99654.88;;;-1.03;68.35
50292;BME280;36190;54.980;73.388;2023-03-15T08:11:16;99655.22;;;-1.08;68.37
50292;BME280;36190;54.980;73.388;2023-03-15T08:13:44;99651.97;;;-1.12;68.61
50292;BME280;36190;54.980;73.388;2023-03-15T08:16:11;99674.22;;;-1.17;68.84
50292;BME280;36190;54.980;73.388;2023-03-15T08:18:38;99667.78;;;-1.38;68.89
50292;BME280;36190;54.980;73.388;2023-03-15T08:21:07;99666.28;;;-1.66;69.48
50292;BME280;36190;54.980;73.388;2023-03-15T08:23:34;99667.88;;;-1.76;70.06
50292;BME280;36190;54.980;73.388;2023-03-15T08:26:03;99666.19;;;-1.64;70.38
50292;BME280;36190;54.980;73.388;2023-03-15T08:28:31;99657.44;;;-1.52;70.28
50292;BME280;36190;54.980;73.388;2023-03-15T08:30:59;99658.81;;;-1.46;70.28
50292;BME280;36190;54.980;73.388;2023-03-15T08:33:26;99667.72;;;-1.49;70.24
50292;BME280;36190;54.980;73.388;2023-03-15T08:35:55;99670.22;;;-1.60;70.53
50292;BME280;36190;54.980;73.388;2023-03-15T08:38:22;99673.72;;;-1.73;70.85
50292;BME280;36190;54.980;73.388;2023-03-15T08:40:55;99671.53;;;-1.79;71.33
50292;BME280;36190;54.980;73.388;2023-03-15T08:43:24;99666.00;;;-1.87;71.39
50292;BME280;36190;54.980;73.388;2023-03-15T08:45:51;99666.31;;;-1.92;71.71
50292;BME280;36190;54.980;73.388;2023-03-15T08:48:19;99667.56;;;-1.98;71.75
50292;BME280;36190;54.980;73.388;2023-03-15T08:50:47;99668.94;;;-2.05;72.06
50292;BME280;36190;54.980;73.388;2023-03-15T08:53:14;99671.75;;;-2.08;72.37
50292;BME280;36190;54.980;73.388;2023-03-15T08:55:41;99674.38;;;-2.08;72.60
50292;BME280;36190;54.980;73.388;2023-03-15T08:58:09;99672.81;;;-2.11;72.68
50292;BME280;36190;54.980;73.388;2023-03-15T09:00:39;99681.47;;;-2.10;72.97
50292;BME280;36190;54.980;73.388;2023-03-15T09:03:06;99685.44;;;-2.17;73.12
50292;BME280;36190;54.980;73.388;2023-03-15T09:05:34;99681.59;;;-2.25;73.40
50292;BME280;36190;54.980;73.388;2023-03-15T09:08:03;99686.28;;;-2.17;73.69
50292;BME280;36190;54.980;73.388;2023-03-15T09:10:30;99686.69;;;-2.10;73.31
50292;BME280;36190;54.980;73.388;2023-03-15T09:12:59;99695.69;;;-2.01;73.60
50292;BME280;36190;54.980;73.388;2023-03-15T09:15:27;99690.06;;;-1.95;73.48
50292;BME280;36190;54.980;73.388;2023-03-15T09:17:56;99694.22;;;-1.92;73.59
50292;BME280;36190;54.980;73.388;2023-03-15T09:20:24;99696.66;;;-1.89;73.64
50292;BME280;36190;54.980;73.388;2023-03-15T09:22:54;99699.66;;;-1.96;73.56
50292;BME280;36190;54.980;73.388;2023-03-15T09:25:23;99695.16;;;-2.07;73.87
50292;BME280;36190;54.980;73.388;2023-03-15T09:27:51;99701.13;;;-2.17;74.09
50292;BME280;36190;54.980;73.388;2023-03-15T09:30:18;99706.88;;;-2.25;74.23
50292;BME280;36190;54.980;73.388;2023-03-15T09:32:46;99703.19;;;-2.36;74.32
50292;BME280;36190;54.980;73.388;2023-03-15T09:35:16;99693.84;;;-2.53;74.77
50292;BME280;36190;54.980;73.388;2023-03-15T09:37:45;99714.88;;;-2.41;74.77
50292;BME280;36190;54.980;73.388;2023-03-15T09:40:17;99713.00;;;-2.52;74.77
50292;BME280;36190;54.980;73.388;2023-03-15T09:43:03;99719.84;;;-2.64;74.84
50292;BME280;36190;54.980;73.388;2023-03-15T09:45:51;99714.47;;;-2.76;75.38
50292;BME280;36190;54.980;73.388;2023-03-15T09:48:28;99719.56;;;-2.87;75.36
50292;BME280;36190;54.980;73.388;2023-03-15T09:51:01;99716.00;;;-2.86;75.73
50292;BME280;36190;54.980;73.388;2023-03-15T09:53:37;99718.75;;;-2.74;75.96
50292;BME280;36190;54.980;73.388;2023-03-15T09:56:18;99717.13;;;-2.63;75.48
50292;BME280;36190;54.980;73.388;2023-03-15T09:58:48;99720.38;;;-2.59;75.38
50292;BME280;36190;54.980;73.388;2023-03-15T10:01:18;99717.97;;;-2.62;75.27
50292;BME280;36190;54.980;73.388;2023-03-15T10:03:51;99717.25;;;-2.64;75.35
50292;BME280;36190;54.980;73.388;2023-03-15T10:06:21;99731.38;;;-2.54;75.46
50292;BME280;36190;54.980;73.388;2023-03-15T10:08:55;99729.69;;;-2.55;75.24
50292;BME280;36190;54.980;73.388;2023-03-15T10:11:27;99731.97;;;-2.63;75.07
50292;BME280;36190;54.980;73.388;2023-03-15T10:14:08;99734.69;;;-2.65;75.30
50292;BME280;36190;54.980;73.388;2023-03-15T10:16:42;99738.19;;;-2.79;75.37
50292;BME280;36190;54.980;73.388;2023-03-15T10:19:17;99746.41;;;-2.85;75.61
50292;BME280;36190;54.980;73.388;2023-03-15T10:21:53;99740.81;;;-2.93;75.61
50292;BME280;36190;54.980;73.388;2023-03-15T10:24:30;99738.22;;;-2.93;75.79
50292;BME280;36190;54.980;73.388;2023-03-15T10:27:11;99751.47;;;-2.96;75.69
50292;BME280;36190;54.980;73.388;2023-03-15T10:29:40;99745.03;;;-3.05;75.94
50292;BME280;36190;54.980;73.388;2023-03-15T10:32:14;99758.75;;;-3.01;76.29
50292;BME280;36190;54.980;73.388;2023-03-15T10:34:47;99760.41;;;-3.00;76.41
50292;BME280;36190;54.980;73.388;2023-03-15T10:37:17;99758.38;;;-2.95;76.32
50292;BME280;36190;54.980;73.388;2023-03-15T10:39:52;99753.19;;;-2.82;76.33
50292;BME280;36190;54.980;73.388;2023-03-15T10:42:25;99765.66;;;-2.73;75.94
50292;BME280;36190;54.980;73.388;2023-03-15T10:44:54;99777.56;;;-2.82;75.85
50292;BME280;36190;54.980;73.388;2023-03-15T10:47:23;99769.19;;;-3.01;76.07
50292;BME280;36190;54.980;73.388;2023-03-15T10:49:55;99776.66;;;-3.10;76.30
50292;BME280;36190;54.980;73.388;2023-03-15T10:52:32;99775.34;;;-3.17;76.63
50292;BME280;36190;54.980;73.388;2023-03-15T10:55:04;99779.09;;;-3.21;76.70
50292;BME280;36190;54.980;73.388;2023-03-15T10:57:37;99777.44;;;-3.22;76.81
50292;BME280;36190;54.980;73.388;2023-03-15T11:00:20;99777.06;;;-3.30;76.61
50292;BME280;36190;54.980;73.388;2023-03-15T11:02:49;99795.50;;;-3.34;76.72
50292;BME280;36190;54.980;73.388;2023-03-15T11:05:18;99791.03;;;-3.32;77.02
50292;BME280;36190;54.980;73.388;2023-03-15T11:07:55;99793.47;;;-3.28;76.98
50292;BME280;36190;54.980;73.388;2023-03-15T11:10:25;99786.00;;;-3.35;76.94
50292;BME280;36190;54.980;73.388;2023-03-15T11:13:08;99800.44;;;-3.29;76.93
50292;BME280;36190;54.980;73.388;2023-03-15T11:15:36;99797.56;;;-3.39;76.91
50292;BME280;36190;54.980;73.388;2023-03-15T11:18:03;99798.75;;;-3.45;77.11
50292;BME280;36190;54.980;73.388;2023-03-15T11:20:33;99789.16;;;-3.44;77.34
50292;BME280;36190;54.980;73.388;2023-03-15T11:23:12;99774.81;;;-3.51;77.15
50292;BME280;36190;54.980;73.388;2023-03-15T11:25:41;99797.75;;;-3.42;77.20
50292;BME280;36190;54.980;73.388;2023-03-15T11:28:16;99786.75;;;-3.47;77.43
50292;BME280;36190;54.980;73.388;2023-03-15T11:30:44;99770.25;;;-3.62;77.28
50292;BME280;36190;54.980;73.388;2023-03-15T11:33:25;99781.06;;;-3.54;77.69
50292;BME280;36190;54.980;73.388;2023-03-15T11:35:54;99786.56;;;-3.59;77.61
50292;BME280;36190;54.980;73.388;2023-03-15T11:38:30;99795.97;;;-3.56;77.76
50292;BME280;36190;54.980;73.388;2023-03-15T11:41:03;99791.78;;;-3.59;77.89
50292;BME280;36190;54.980;73.388;2023-03-15T11:43:40;99797.84;;;-3.58;78.08
50292;BME280;36190;54.980;73.388;2023-03-15T11:46:18;99780.97;;;-3.67;78.00
50292;BME280;36190;54.980;73.388;2023-03-15T11:48:56;99797.72;;;-3.56;78.12
50292;BME280;36190;54.980;73.388;2023-03-15T11:51:28;99783.75;;;-3.70;77.97
50292;BME280;36190;54.980;73.388;2023-03-15T11:54:06;99818.03;;;-3.62;78.30
50292;BME280;36190;54.980;73.388;2023-03-15T11:56:51;99807.78;;;-3.65;78.45
50292;BME280;36190;54.980;73.388;2023-03-15T11:59:24;99818.59;;;-3.71;78.36
50292;BME280;36190;54.980;73.388;2023-03-15T12:01:56;99809.91;;;-3.71;78.51
50292;BME280;36190;54.980;73.388;2023-03-15T12:04:50;99816.53;;;-3.66;78.69
50292;BME280;36190;54.980;73.388;2023-03-15T12:07:36;99814.69;;;-3.64;78.79
50292;BME280;36190;54.980;73.388;2023-03-15T12:10:33;99818.03;;;-3.62;78.74
50292;BME280;36190;54.980;73.388;2023-03-15T12:13:18;99821.94;;;-3.69;78.53
50292;BME280;36190;54.980;73.388;2023-03-15T12:15:47;99824.53;;;-3.69;78.67
50292;BME280;36190;54.980;73.388;2023-03-15T12:18:18;99807.00;;;-3.81;78.86
50292;BME280;36190;54.980;73.388;2023-03-15T12:20:50;99813.16;;;-3.82;78.91
50292;BME280;36190;54.980;73.388;2023-03-15T12:23:31;99832.38;;;-3.69;79.08
50292;BME280;36190;54.980;73.388;2023-03-15T12:26:05;99825.09;;;-3.78;79.00
50292;BME280;36190;54.980;73.388;2023-03-15T12:28:37;99837.66;;;-3.70;79.35
50292;BME280;36190;54.980;73.388;2023-03-15T12:31:08;99841.28;;;-3.73;79.25
50292;BME280;36190;54.980;73.388;2023-03-15T12:33:45;99831.03;;;-3.76;79.23
50292;BME280;36190;54.980;73.388;2023-03-15T12:36:31;99845.00;;;-3.77;79.35
50292;BME280;36190;54.980;73.388;2023-03-15T12:39:19;99852.25;;;-3.82;79.50
50292;BME280;36190;54.980;73.388;2023-03-15T12:41:49;99846.75;;;-3.92;79.52
50292;BME280;36190;54.980;73.388;2023-03-15T12:47:01;99852.78;;;-3.92;79.71
50292;BME280;36190;54.980;73.388;2023-03-15T12:49:32;99861.53;;;-3.93;80.00
50292;BME280;36190;54.980;73.388;2023-03-15T12:52:02;99870.44;;;-3.97;80.09
50292;BME280;36190;54.980;73.388;2023-03-15T12:54:36;99859.13;;;-3.96;80.30
50292;BME280;36190;54.980;73.388;2023-03-15T12:57:10;99847.44;;;-4.05;80.10
50292;BME280;36190;54.980;73.388;2023-03-15T12:59:48;99863.22;;;-3.92;80.31
50292;BME280;36190;54.980;73.388;2023-03-15T13:02:29;99854.31;;;-3.88;80.43
50292;BME280;36190;54.980;73.388;2023-03-15T13:05:20;99867.91;;;-3.82;80.39
50292;BME280;36190;54.980;73.388;2023-03-15T13:07:56;99862.88;;;-3.85;80.31
50292;BME280;36190;54.980;73.388;2023-03-15T13:10:57;99872.38;;;-3.84;80.29